createdAt,value
2023-11-07T05:36:28.848Z,7.48
2023-11-07T05:39:45.661Z,7.57
2023-11-07T05:56:02.577Z,7.61
2023-11-07T06:03:20.525Z,7.48
2023-11-07T06:19:15.883Z,8.27
2023-11-07T06:26:26.384Z,8.33
2023-11-07T06:29:44.468Z,8.17
2023-11-07T07:02:39.040Z,8.55
2023-11-07T07:06:04.687Z,8.92
2023-11-07T07:10:06.541Z,9.52
2023-11-07T07:17:02.547Z,9.71
2023-11-07T07:20:22.962Z,9.85
2023-11-07T07:24:01.963Z,10.17
2023-11-07T07:27:37.002Z,10.40
2023-11-07T07:31:07.966Z,10.44
2023-11-07T07:34:39.084Z,10.70
2023-11-07T07:38:11.187Z,10.85
2023-11-07T07:41:25.816Z,10.97
2023-11-07T07:45:04.594Z,11.03
2023-11-07T07:48:24.547Z,11.21
2023-11-07T07:51:50.994Z,11.43
2023-11-07T07:55:32.474Z,11.39
2023-11-07T07:59:12.056Z,11.49
2023-11-07T08:02:30.954Z,11.71
2023-11-07T08:05:49.615Z,11.73
2023-11-07T08:09:05.667Z,11.88
2023-11-07T08:12:31.868Z,12.31
2023-11-07T08:15:53.344Z,12.45
2023-11-07T08:19:14.470Z,12.64
2023-11-07T08:22:42.068Z,12.75
2023-11-07T08:26:19.716Z,13.03
2023-11-07T08:30:12.657Z,12.96
2023-11-07T08:33:53.284Z,13.18
2023-11-07T08:37:27.264Z,13.14
2023-11-07T08:40:44.606Z,13.34
2023-11-07T08:44:20.184Z,13.37
2023-11-07T08:47:54.139Z,13.38
2023-11-07T08:51:32.198Z,13.51
2023-11-07T08:55:05.465Z,13.37
2023-11-07T08:58:49.847Z,13.54
2023-11-07T09:06:47.244Z,13.30
2023-11-07T09:11:03.245Z,13.27
2023-11-07T09:14:37.544Z,13.44
2023-11-07T09:17:57.957Z,13.42
2023-11-07T09:21:40.489Z,13.39
2023-11-07T09:25:40.742Z,13.28
2023-11-07T09:29:08.368Z,13.38
2023-11-07T09:32:30.039Z,13.59
2023-11-07T09:36:12.385Z,13.55
2023-11-07T09:39:34.975Z,13.67
2023-11-07T09:43:04.294Z,13.76
2023-11-07T09:46:25.740Z,13.67
2023-11-07T09:49:42.715Z,13.89
2023-11-07T09:53:08.859Z,13.90
2023-11-07T09:56:38.767Z,13.98
2023-11-07T09:59:55.280Z,14.07
2023-11-07T10:03:09.825Z,14.12
2023-11-07T10:06:24.648Z,14.29
2023-11-07T10:09:40.334Z,14.51
2023-11-07T10:12:59.285Z,14.15
2023-11-07T10:16:18.715Z,14.46
2023-11-07T10:19:33.866Z,14.64
2023-11-07T10:22:48.258Z,14.51
2023-11-07T10:26:13.279Z,14.40
2023-11-07T10:29:32.759Z,14.60
2023-11-07T10:32:55.383Z,14.80
2023-11-07T10:36:13.059Z,14.85
2023-11-07T10:39:27.944Z,14.62
2023-11-07T10:42:48.798Z,14.49
2023-11-07T10:46:11.310Z,14.55
2023-11-07T10:49:30.575Z,14.54
2023-11-07T10:52:57.818Z,14.48
2023-11-07T11:00:23.196Z,14.54
2023-11-07T11:04:24.912Z,14.59
2023-11-07T11:08:09.042Z,14.63
2023-11-07T11:11:43.341Z,14.46
2023-11-07T11:15:00.330Z,14.47
2023-11-07T11:18:38.075Z,14.57
2023-11-07T11:22:09.093Z,14.39
2023-11-07T11:25:38.933Z,14.45
2023-11-07T11:29:36.930Z,14.61
2023-11-07T11:33:34.130Z,14.83
2023-11-07T11:41:03.431Z,14.51
2023-11-07T11:44:26.451Z,14.68
2023-11-07T11:47:59.482Z,14.86
2023-11-07T11:51:39.255Z,15.29
2023-11-07T11:59:05.979Z,15.18
2023-11-07T12:02:51.627Z,15.16
2023-11-07T12:06:10.356Z,14.99
2023-11-07T12:13:16.552Z,14.94
2023-11-07T12:16:40.424Z,15.21
2023-11-07T12:20:12.476Z,15.16
2023-11-07T12:23:32.071Z,14.82
2023-11-07T12:26:48.974Z,14.74
2023-11-07T12:30:17.271Z,14.64
2023-11-07T12:33:42.322Z,14.89
2023-11-07T12:36:58.344Z,14.83
2023-11-07T12:40:27.773Z,14.46
2023-11-07T12:43:49.824Z,14.62
2023-11-07T12:47:20.385Z,14.64
2023-11-07T12:50:44.023Z,14.58
2023-11-07T12:53:58.290Z,14.63
2023-11-07T12:57:16.185Z,14.89
2023-11-07T13:01:02.300Z,14.75
2023-11-07T13:04:37.547Z,14.69
2023-11-07T13:07:54.644Z,14.95
2023-11-07T13:11:21.579Z,15.19
2023-11-07T13:14:39.420Z,15.32
2023-11-07T13:18:02.274Z,15.55
2023-11-07T13:21:23.715Z,16.07
2023-11-07T13:24:46.816Z,15.21
2023-11-07T13:28:06.058Z,15.16
2023-11-07T13:31:22.477Z,14.79
2023-11-07T13:34:38.470Z,14.73
2023-11-07T13:38:02.688Z,14.78
2023-11-07T13:41:22.091Z,14.75
2023-11-07T13:44:40.337Z,14.68
2023-11-07T13:48:04.850Z,14.45
2023-11-07T13:51:22.736Z,14.55
2023-11-07T13:54:38.919Z,14.41
2023-11-07T13:58:08.242Z,14.34
2023-11-07T14:01:51.553Z,14.44
2023-11-07T14:05:10.374Z,14.36
2023-11-07T14:08:50.893Z,14.31
2023-11-07T14:12:20.117Z,14.33
2023-11-07T14:15:36.901Z,14.26
2023-11-07T14:19:05.757Z,14.28
2023-11-07T14:22:22.730Z,14.27
2023-11-07T14:25:47.804Z,14.16
2023-11-07T14:29:47.274Z,14.19
2023-11-07T14:33:16.486Z,14.08
2023-11-07T14:36:35.741Z,14.02
2023-11-07T14:39:57.636Z,13.94
2023-11-07T14:43:16.067Z,13.84
2023-11-07T14:46:36.649Z,13.91
2023-11-07T14:49:51.704Z,13.90
2023-11-07T14:53:06.106Z,13.78
2023-11-07T14:56:20.533Z,13.66
2023-11-07T14:59:34.787Z,13.68
2023-11-07T15:02:50.378Z,13.74
2023-11-07T15:06:06.327Z,13.78
2023-11-07T15:09:20.956Z,13.69
2023-11-07T15:12:35.234Z,13.68
2023-11-07T15:15:51.131Z,13.49
2023-11-07T15:19:07.024Z,13.46
2023-11-07T15:22:22.398Z,13.59
2023-11-07T15:25:37.489Z,13.58
2023-11-07T15:28:52.193Z,13.52
2023-11-07T15:32:07.256Z,13.34
2023-11-07T15:35:23.653Z,13.17
2023-11-07T15:38:37.826Z,13.08
2023-11-07T15:41:52.129Z,13.16
2023-11-07T15:45:09.655Z,13.38
2023-11-07T15:48:24.260Z,13.33
2023-11-07T15:51:39.898Z,13.30
2023-11-07T15:54:54.292Z,13.28
2023-11-07T15:58:08.771Z,13.34
2023-11-07T16:01:26.971Z,13.26
2023-11-07T16:04:41.207Z,13.24
2023-11-07T16:07:56.865Z,13.24
2023-11-07T16:11:11.009Z,13.15
2023-11-07T16:14:25.215Z,13.24
2023-11-07T16:17:47.145Z,13.02
2023-11-07T16:21:01.600Z,13.15
2023-11-07T16:24:17.298Z,13.14
2023-11-07T16:27:31.586Z,12.99
2023-11-07T16:30:46.649Z,13.07
2023-11-07T16:34:01.396Z,13.00
2023-11-07T16:37:16.103Z,12.98
2023-11-07T16:40:31.680Z,12.80
